Aviation Digital Data Service (ADDS)

Output produced by TAFs form (2055 UTC 26 May 2017)
found at http://www.aviationweather.gov/adds/tafs/
 
KPIT 262051Z 28013KT 10SM FEW035 SCT046 BKN055 19/13 A2986 RMK AO2 SLP114 T01940128 50001
KPIT 261845Z 2619/2724 28012KT P6SM BKN035 
     FM270200 VRB04KT P6SM BKN250 
     FM270700 12003KT P6SM VCTS BKN050CB 
     FM271100 11003KT P6SM VCSH BKN008 
     FM271900 27003KT P6SM BKN040
       
KBVI 262047Z 28009G14KT 10SM SCT027 OVC044 18/12 A2988
KBVI 261738Z 2618/2718 28010KT P6SM BKN020 
     FM262100 28009KT P6SM BKN035 
     FM270200 VRB05KT P6SM BKN250 
     FM270700 12003KT P6SM VCTS BKN050CB 
     FM271100 11003KT P6SM VCSH BKN008
       
KFKL 262035Z 29009G14KT 10SM SCT017 BKN030 OVC035 14/10 A2986 RMK AO1
KFKL 261845Z 2619/2718 29010G15KT P6SM BKN020 
     FM270000 VRB03KT P6SM BKN040 
     FM270900 12003KT P6SM BKN025 
     FM271200 12003KT P6SM BKN008 AMD LTD TO CLD VIS AND WIND
       
KERI 262051Z 25010G18KT 10SM SCT016 OVC050 14/12 A2985 RMK AO2 SLP108 T01440117 51006
KERI 261738Z 2618/2718 26010KT P6SM SCT006 BKN015 
     TEMPO 2618/2620 BKN006 
     FM270400 VRB04KT P6SM SCT025 BKN035 
     FM271100 VRB04KT 6SM -SHRA VCTS SCT015CB OVC025 
     FM271500 01006KT P6SM OVC015